sensor_id;sensor_type;location;lat;lon;timestamp;P1;durP1;ratioP1;P2;durP2;ratioP2
47762;SDS011;33526;42.690;23.322;2023-07-29T00:01:22;4.57;;;2.78;;
47762;SDS011;33526;42.690;23.322;2023-07-29T00:03:48;5.57;;;3.13;;
47762;SDS011;33526;42.690;23.322;2023-07-29T00:06:13;4.68;;;3.13;;
47762;SDS011;33526;42.690;23.322;2023-07-29T00:08:39;5.35;;;2.88;;
47762;SDS011;33526;42.690;23.322;2023-07-29T00:11:04;8.10;;;3.38;;
47762;SDS011;33526;42.690;23.322;2023-07-29T00:13:29;4.18;;;2.70;;
47762;SDS011;33526;42.690;23.322;2023-07-29T00:15:55;3.10;;;2.40;;
47762;SDS011;33526;42.690;23.322;2023-07-29T00:18:21;4.47;;;2.53;;
47762;SDS011;33526;42.690;23.322;2023-07-29T00:20:47;8.55;;;3.10;;
47762;SDS011;33526;42.690;23.322;2023-07-29T00:23:13;4.35;;;3.00;;
47762;SDS011;33526;42.690;23.322;2023-07-29T00:25:38;4.47;;;3.20;;
47762;SDS011;33526;42.690;23.322;2023-07-29T00:28:04;4.88;;;3.03;;
47762;SDS011;33526;42.690;23.322;2023-07-29T00:30:29;3.38;;;3.05;;
47762;SDS011;33526;42.690;23.322;2023-07-29T00:32:55;6.32;;;3.25;;
47762;SDS011;33526;42.690;23.322;2023-07-29T00:35:20;6.72;;;3.13;;
47762;SDS011;33526;42.690;23.322;2023-07-29T00:37:45;5.25;;;3.08;;
47762;SDS011;33526;42.690;23.322;2023-07-29T00:40:15;7.53;;;3.58;;
47762;SDS011;33526;42.690;23.322;2023-07-29T00:42:44;5.60;;;3.25;;
47762;SDS011;33526;42.690;23.322;2023-07-29T00:45:09;4.47;;;3.20;;
47762;SDS011;33526;42.690;23.322;2023-07-29T00:47:37;4.55;;;3.50;;
47762;SDS011;33526;42.690;23.322;2023-07-29T00:50:04;6.00;;;2.97;;
47762;SDS011;33526;42.690;23.322;2023-07-29T00:54:56;6.15;;;3.15;;
47762;SDS011;33526;42.690;23.322;2023-07-29T00:57:22;5.65;;;3.17;;
47762;SDS011;33526;42.690;23.322;2023-07-29T00:59:50;5.18;;;3.20;;
47762;SDS011;33526;42.690;23.322;2023-07-29T01:02:16;4.75;;;2.85;;
47762;SDS011;33526;42.690;23.322;2023-07-29T01:04:43;4.22;;;3.28;;
47762;SDS011;33526;42.690;23.322;2023-07-29T01:15:56;4.78;;;3.13;;
47762;SDS011;33526;42.690;23.322;2023-07-29T01:17:58;3.67;;;2.67;;
47762;SDS011;33526;42.690;23.322;2023-07-29T01:20:29;4.53;;;3.05;;
47762;SDS011;33526;42.690;23.322;2023-07-29T01:22:58;3.97;;;2.53;;
47762;SDS011;33526;42.690;23.322;2023-07-29T01:25:23;8.10;;;2.75;;
47762;SDS011;33526;42.690;23.322;2023-07-29T01:27:50;3.78;;;3.30;;
47762;SDS011;33526;42.690;23.322;2023-07-29T01:30:17;4.35;;;3.20;;
47762;SDS011;33526;42.690;23.322;2023-07-29T01:32:51;5.82;;;3.22;;
47762;SDS011;33526;42.690;23.322;2023-07-29T01:35:30;4.53;;;2.75;;
47762;SDS011;33526;42.690;23.322;2023-07-29T01:38:00;3.60;;;3.20;;
47762;SDS011;33526;42.690;23.322;2023-07-29T01:40:30;4.50;;;3.33;;
47762;SDS011;33526;42.690;23.322;2023-07-29T01:42:56;5.10;;;3.60;;
47762;SDS011;33526;42.690;23.322;2023-07-29T01:45:25;4.80;;;3.15;;
47762;SDS011;33526;42.690;23.322;2023-07-29T01:47:51;9.07;;;3.35;;
47762;SDS011;33526;42.690;23.322;2023-07-29T01:50:16;10.05;;;3.58;;
47762;SDS011;33526;42.690;23.322;2023-07-29T01:52:42;4.15;;;3.35;;
47762;SDS011;33526;42.690;23.322;2023-07-29T01:55:07;8.57;;;3.17;;
47762;SDS011;33526;42.690;23.322;2023-07-29T01:57:33;5.60;;;3.47;;
47762;SDS011;33526;42.690;23.322;2023-07-29T01:59:58;6.95;;;3.58;;
47762;SDS011;33526;42.690;23.322;2023-07-29T02:02:24;9.60;;;3.30;;
47762;SDS011;33526;42.690;23.322;2023-07-29T02:04:49;7.53;;;3.50;;
47762;SDS011;33526;42.690;23.322;2023-07-29T02:07:17;4.65;;;3.28;;
47762;SDS011;33526;42.690;23.322;2023-07-29T02:09:43;8.05;;;3.70;;
47762;SDS011;33526;42.690;23.322;2023-07-29T02:12:08;5.45;;;3.53;;
47762;SDS011;33526;42.690;23.322;2023-07-29T02:14:34;5.43;;;3.65;;
47762;SDS011;33526;42.690;23.322;2023-07-29T02:16:59;9.27;;;4.03;;
47762;SDS011;33526;42.690;23.322;2023-07-29T02:19:25;7.70;;;3.45;;
47762;SDS011;33526;42.690;23.322;2023-07-29T02:21:50;5.80;;;3.58;;
47762;SDS011;33526;42.690;23.322;2023-07-29T02:24:15;4.35;;;3.30;;
47762;SDS011;33526;42.690;23.322;2023-07-29T02:26:41;5.78;;;3.17;;
47762;SDS011;33526;42.690;23.322;2023-07-29T02:29:06;6.55;;;3.78;;
47762;SDS011;33526;42.690;23.322;2023-07-29T02:31:32;5.32;;;3.70;;
47762;SDS011;33526;42.690;23.322;2023-07-29T02:33:57;6.47;;;3.92;;
47762;SDS011;33526;42.690;23.322;2023-07-29T02:36:24;4.55;;;3.30;;
47762;SDS011;33526;42.690;23.322;2023-07-29T02:38:51;4.80;;;3.63;;
47762;SDS011;33526;42.690;23.322;2023-07-29T02:41:16;6.45;;;3.55;;
47762;SDS011;33526;42.690;23.322;2023-07-29T02:43:43;5.68;;;3.47;;
47762;SDS011;33526;42.690;23.322;2023-07-29T02:46:12;5.78;;;3.92;;
47762;SDS011;33526;42.690;23.322;2023-07-29T02:48:38;5.05;;;3.35;;
47762;SDS011;33526;42.690;23.322;2023-07-29T02:51:03;5.35;;;3.63;;
47762;SDS011;33526;42.690;23.322;2023-07-29T02:53:28;5.80;;;3.63;;
47762;SDS011;33526;42.690;23.322;2023-07-29T02:55:54;10.27;;;3.58;;
47762;SDS011;33526;42.690;23.322;2023-07-29T02:58:20;4.32;;;3.08;;
47762;SDS011;33526;42.690;23.322;2023-07-29T03:00:49;7.25;;;3.70;;
47762;SDS011;33526;42.690;23.322;2023-07-29T03:03:15;7.18;;;3.50;;
47762;SDS011;33526;42.690;23.322;2023-07-29T03:05:40;6.75;;;3.50;;
47762;SDS011;33526;42.690;23.322;2023-07-29T03:08:06;5.88;;;3.60;;
47762;SDS011;33526;42.690;23.322;2023-07-29T03:10:31;8.10;;;3.10;;
47762;SDS011;33526;42.690;23.322;2023-07-29T03:13:00;5.35;;;3.05;;
47762;SDS011;33526;42.690;23.322;2023-07-29T03:15:26;4.43;;;3.72;;
47762;SDS011;33526;42.690;23.322;2023-07-29T03:17:51;7.68;;;4.72;;
47762;SDS011;33526;42.690;23.322;2023-07-29T03:20:17;7.38;;;3.90;;
47762;SDS011;33526;42.690;23.322;2023-07-29T03:22:44;7.00;;;4.33;;
47762;SDS011;33526;42.690;23.322;2023-07-29T03:25:10;9.07;;;4.93;;
47762;SDS011;33526;42.690;23.322;2023-07-29T03:27:35;8.10;;;3.90;;
47762;SDS011;33526;42.690;23.322;2023-07-29T03:30:02;4.38;;;3.95;;
47762;SDS011;33526;42.690;23.322;2023-07-29T03:32:28;11.73;;;7.65;;
47762;SDS011;33526;42.690;23.322;2023-07-29T03:34:53;7.82;;;4.35;;
47762;SDS011;33526;42.690;23.322;2023-07-29T03:37:19;8.85;;;3.67;;
47762;SDS011;33526;42.690;23.322;2023-07-29T03:39:46;6.63;;;3.65;;
47762;SDS011;33526;42.690;23.322;2023-07-29T03:42:11;7.28;;;4.50;;
47762;SDS011;33526;42.690;23.322;2023-07-29T03:44:37;11.93;;;5.68;;
47762;SDS011;33526;42.690;23.322;2023-07-29T03:49:29;7.78;;;4.53;;
47762;SDS011;33526;42.690;23.322;2023-07-29T03:51:56;7.38;;;4.47;;
47762;SDS011;33526;42.690;23.322;2023-07-29T03:54:21;4.97;;;3.90;;
47762;SDS011;33526;42.690;23.322;2023-07-29T03:56:47;9.13;;;3.58;;
47762;SDS011;33526;42.690;23.322;2023-07-29T03:59:12;5.07;;;3.70;;
47762;SDS011;33526;42.690;23.322;2023-07-29T04:01:38;5.28;;;4.00;;
47762;SDS011;33526;42.690;23.322;2023-07-29T04:04:03;5.38;;;4.20;;
47762;SDS011;33526;42.690;23.322;2023-07-29T04:06:28;7.80;;;4.55;;
47762;SDS011;33526;42.690;23.322;2023-07-29T04:08:54;6.07;;;3.90;;
47762;SDS011;33526;42.690;23.322;2023-07-29T04:11:20;5.05;;;4.07;;
47762;SDS011;33526;42.690;23.322;2023-07-29T04:13:45;5.60;;;4.22;;
47762;SDS011;33526;42.690;23.322;2023-07-29T04:16:11;6.30;;;4.50;;
47762;SDS011;33526;42.690;23.322;2023-07-29T04:18:36;6.43;;;4.00;;
47762;SDS011;33526;42.690;23.322;2023-07-29T04:21:02;6.82;;;4.10;;
47762;SDS011;33526;42.690;23.322;2023-07-29T04:23:27;7.85;;;4.00;;
47762;SDS011;33526;42.690;23.322;2023-07-29T04:25:53;10.60;;;4.15;;
47762;SDS011;33526;42.690;23.322;2023-07-29T04:28:18;11.70;;;4.07;;
47762;SDS011;33526;42.690;23.322;2023-07-29T04:30:43;6.70;;;3.65;;
47762;SDS011;33526;42.690;23.322;2023-07-29T04:33:09;7.22;;;3.65;;
47762;SDS011;33526;42.690;23.322;2023-07-29T04:35:34;4.55;;;3.30;;
47762;SDS011;33526;42.690;23.322;2023-07-29T04:38:00;8.07;;;3.53;;
47762;SDS011;33526;42.690;23.322;2023-07-29T04:40:26;6.53;;;3.22;;
47762;SDS011;33526;42.690;23.322;2023-07-29T04:42:52;8.02;;;3.58;;
47762;SDS011;33526;42.690;23.322;2023-07-29T04:45:17;6.70;;;4.20;;
47762;SDS011;33526;42.690;23.322;2023-07-29T04:47:42;7.20;;;3.97;;
47762;SDS011;33526;42.690;23.322;2023-07-29T04:50:08;12.45;;;3.97;;
47762;SDS011;33526;42.690;23.322;2023-07-29T04:52:34;6.68;;;3.35;;
47762;SDS011;33526;42.690;23.322;2023-07-29T04:54:59;6.40;;;3.90;;
47762;SDS011;33526;42.690;23.322;2023-07-29T04:57:25;5.07;;;3.78;;
47762;SDS011;33526;42.690;23.322;2023-07-29T04:59:50;6.55;;;3.63;;
47762;SDS011;33526;42.690;23.322;2023-07-29T05:02:15;6.78;;;3.63;;
47762;SDS011;33526;42.690;23.322;2023-07-29T05:04:41;6.60;;;4.25;;
47762;SDS011;33526;42.690;23.322;2023-07-29T05:07:06;5.32;;;3.60;;
47762;SDS011;33526;42.690;23.322;2023-07-29T05:09:32;4.55;;;3.58;;
47762;SDS011;33526;42.690;23.322;2023-07-29T05:11:57;4.13;;;3.15;;
47762;SDS011;33526;42.690;23.322;2023-07-29T05:14:23;6.50;;;3.60;;
47762;SDS011;33526;42.690;23.322;2023-07-29T05:16:48;5.18;;;3.78;;
47762;SDS011;33526;42.690;23.322;2023-07-29T05:19:16;7.50;;;3.38;;
47762;SDS011;33526;42.690;23.322;2023-07-29T05:21:42;5.35;;;3.75;;
47762;SDS011;33526;42.690;23.322;2023-07-29T05:24:07;4.82;;;4.05;;
47762;SDS011;33526;42.690;23.322;2023-07-29T05:26:33;8.88;;;3.92;;
47762;SDS011;33526;42.690;23.322;2023-07-29T05:28:58;6.57;;;4.00;;
47762;SDS011;33526;42.690;23.322;2023-07-29T05:31:23;6.32;;;3.58;;
47762;SDS011;33526;42.690;23.322;2023-07-29T05:33:49;8.20;;;3.80;;
47762;SDS011;33526;42.690;23.322;2023-07-29T05:36:14;5.07;;;3.60;;
47762;SDS011;33526;42.690;23.322;2023-07-29T05:38:40;5.57;;;3.77;;
47762;SDS011;33526;42.690;23.322;2023-07-29T05:41:06;9.00;;;3.72;;
47762;SDS011;33526;42.690;23.322;2023-07-29T05:43:32;8.60;;;4.10;;
47762;SDS011;33526;42.690;23.322;2023-07-29T05:45:57;7.13;;;4.27;;
47762;SDS011;33526;42.690;23.322;2023-07-29T05:48:23;6.20;;;3.87;;
47762;SDS011;33526;42.690;23.322;2023-07-29T05:50:48;4.03;;;3.63;;
47762;SDS011;33526;42.690;23.322;2023-07-29T05:53:14;11.27;;;4.07;;
47762;SDS011;33526;42.690;23.322;2023-07-29T05:55:39;7.93;;;3.60;;
47762;SDS011;33526;42.690;23.322;2023-07-29T05:58:05;9.55;;;3.75;;
47762;SDS011;33526;42.690;23.322;2023-07-29T06:00:30;9.03;;;3.80;;
47762;SDS011;33526;42.690;23.322;2023-07-29T06:02:56;7.30;;;3.72;;
47762;SDS011;33526;42.690;23.322;2023-07-29T06:05:21;9.77;;;4.00;;
47762;SDS011;33526;42.690;23.322;2023-07-29T06:07:47;5.82;;;4.18;;
47762;SDS011;33526;42.690;23.322;2023-07-29T06:10:15;7.50;;;4.47;;
47762;SDS011;33526;42.690;23.322;2023-07-29T06:12:44;5.35;;;3.83;;
47762;SDS011;33526;42.690;23.322;2023-07-29T06:15:10;5.82;;;4.30;;
47762;SDS011;33526;42.690;23.322;2023-07-29T06:17:37;12.85;;;6.43;;
47762;SDS011;33526;42.690;23.322;2023-07-29T06:20:03;4.22;;;3.53;;
47762;SDS011;33526;42.690;23.322;2023-07-29T06:22:28;4.82;;;3.53;;
47762;SDS011;33526;42.690;23.322;2023-07-29T06:24:54;9.93;;;4.30;;
47762;SDS011;33526;42.690;23.322;2023-07-29T06:27:19;4.53;;;3.50;;
47762;SDS011;33526;42.690;23.322;2023-07-29T06:29:45;5.32;;;4.18;;
47762;SDS011;33526;42.690;23.322;2023-07-29T06:32:10;4.63;;;3.17;;
47762;SDS011;33526;42.690;23.322;2023-07-29T06:34:36;8.75;;;4.20;;
47762;SDS011;33526;42.690;23.322;2023-07-29T06:37:01;14.88;;;3.83;;
47762;SDS011;33526;42.690;23.322;2023-07-29T06:39:27;7.45;;;4.40;;
47762;SDS011;33526;42.690;23.322;2023-07-29T06:41:52;6.88;;;3.58;;
47762;SDS011;33526;42.690;23.322;2023-07-29T06:44:18;7.00;;;4.05;;
47762;SDS011;33526;42.690;23.322;2023-07-29T06:46:43;5.43;;;3.50;;
47762;SDS011;33526;42.690;23.322;2023-07-29T06:49:09;7.15;;;4.03;;
47762;SDS011;33526;42.690;23.322;2023-07-29T06:51:34;7.28;;;4.60;;
47762;SDS011;33526;42.690;23.322;2023-07-29T06:54:01;4.65;;;3.47;;
47762;SDS011;33526;42.690;23.322;2023-07-29T06:56:28;5.15;;;3.88;;
47762;SDS011;33526;42.690;23.322;2023-07-29T06:58:53;7.80;;;4.20;;
47762;SDS011;33526;42.690;23.322;2023-07-29T07:01:19;13.15;;;5.60;;
47762;SDS011;33526;42.690;23.322;2023-07-29T07:03:44;12.02;;;5.90;;
47762;SDS011;33526;42.690;23.322;2023-07-29T07:06:10;11.77;;;5.03;;
47762;SDS011;33526;42.690;23.322;2023-07-29T07:08:35;8.20;;;3.97;;
47762;SDS011;33526;42.690;23.322;2023-07-29T07:11:00;10.73;;;5.20;;
47762;SDS011;33526;42.690;23.322;2023-07-29T07:13:26;10.70;;;5.50;;
47762;SDS011;33526;42.690;23.322;2023-07-29T07:15:54;14.27;;;7.47;;
47762;SDS011;33526;42.690;23.322;2023-07-29T07:18:20;8.45;;;5.32;;
47762;SDS011;33526;42.690;23.322;2023-07-29T07:20:50;11.02;;;5.00;;
47762;SDS011;33526;42.690;23.322;2023-07-29T07:23:16;12.52;;;6.90;;
47762;SDS011;33526;42.690;23.322;2023-07-29T07:25:42;10.55;;;5.25;;
47762;SDS011;33526;42.690;23.322;2023-07-29T07:28:08;13.60;;;5.03;;
47762;SDS011;33526;42.690;23.322;2023-07-29T07:30:34;10.30;;;4.77;;
47762;SDS011;33526;42.690;23.322;2023-07-29T07:33:00;7.40;;;5.05;;
47762;SDS011;33526;42.690;23.322;2023-07-29T07:35:25;10.30;;;4.78;;
47762;SDS011;33526;42.690;23.322;2023-07-29T07:37:50;11.95;;;4.95;;
47762;SDS011;33526;42.690;23.322;2023-07-29T07:40:16;10.02;;;5.25;;
47762;SDS011;33526;42.690;23.322;2023-07-29T07:42:41;11.80;;;5.47;;
47762;SDS011;33526;42.690;23.322;2023-07-29T07:45:07;10.23;;;4.82;;
47762;SDS011;33526;42.690;23.322;2023-07-29T07:47:32;6.45;;;4.50;;
47762;SDS011;33526;42.690;23.322;2023-07-29T07:49:57;10.98;;;4.43;;
47762;SDS011;33526;42.690;23.322;2023-07-29T07:52:23;7.32;;;4.18;;
47762;SDS011;33526;42.690;23.322;2023-07-29T07:54:52;8.43;;;4.75;;
47762;SDS011;33526;42.690;23.322;2023-07-29T07:57:19;8.93;;;4.22;;
47762;SDS011;33526;42.690;23.322;2023-07-29T08:02:10;9.43;;;4.25;;
47762;SDS011;33526;42.690;23.322;2023-07-29T08:04:38;8.50;;;4.72;;
47762;SDS011;33526;42.690;23.322;2023-07-29T08:07:03;10.88;;;4.40;;
47762;SDS011;33526;42.690;23.322;2023-07-29T08:09:29;6.10;;;4.45;;
47762;SDS011;33526;42.690;23.322;2023-07-29T08:11:54;7.57;;;4.63;;
47762;SDS011;33526;42.690;23.322;2023-07-29T08:14:20;8.73;;;4.15;;
47762;SDS011;33526;42.690;23.322;2023-07-29T08:16:45;10.07;;;4.57;;
47762;SDS011;33526;42.690;23.322;2023-07-29T08:19:11;12.47;;;4.20;;
47762;SDS011;33526;42.690;23.322;2023-07-29T08:21:36;11.73;;;8.50;;
47762;SDS011;33526;42.690;23.322;2023-07-29T08:24:02;10.60;;;3.77;;
47762;SDS011;33526;42.690;23.322;2023-07-29T08:26:28;9.02;;;4.75;;
47762;SDS011;33526;42.690;23.322;2023-07-29T08:28:54;8.40;;;3.60;;
47762;SDS011;33526;42.690;23.322;2023-07-29T08:31:20;5.90;;;3.25;;
47762;SDS011;33526;42.690;23.322;2023-07-29T08:33:45;7.95;;;4.03;;
47762;SDS011;33526;42.690;23.322;2023-07-29T08:36:10;9.52;;;3.95;;
47762;SDS011;33526;42.690;23.322;2023-07-29T08:38:36;7.75;;;3.70;;
47762;SDS011;33526;42.690;23.322;2023-07-29T08:46:26;11.38;;;3.20;;
47762;SDS011;33526;42.690;23.322;2023-07-29T08:48:54;5.78;;;3.85;;
47762;SDS011;33526;42.690;23.322;2023-07-29T08:51:20;6.57;;;3.17;;
47762;SDS011;33526;42.690;23.322;2023-07-29T08:53:48;5.28;;;3.20;;
47762;SDS011;33526;42.690;23.322;2023-07-29T08:56:14;6.27;;;2.83;;
47762;SDS011;33526;42.690;23.322;2023-07-29T08:58:40;4.97;;;3.60;;
47762;SDS011;33526;42.690;23.322;2023-07-29T09:01:07;5.18;;;3.55;;
47762;SDS011;33526;42.690;23.322;2023-07-29T09:03:32;7.43;;;3.80;;
47762;SDS011;33526;42.690;23.322;2023-07-29T09:05:58;6.95;;;3.55;;
47762;SDS011;33526;42.690;23.322;2023-07-29T09:08:24;3.63;;;2.88;;
47762;SDS011;33526;42.690;23.322;2023-07-29T09:10:51;1.20;;;1.10;;
47762;SDS011;33526;42.690;23.322;2023-07-29T09:13:17;1.42;;;1.10;;
47762;SDS011;33526;42.690;23.322;2023-07-29T09:15:42;4.53;;;1.70;;
47762;SDS011;33526;42.690;23.322;2023-07-29T09:18:12;4.17;;;1.97;;
47762;SDS011;33526;42.690;23.322;2023-07-29T09:20:40;5.53;;;2.28;;
47762;SDS011;33526;42.690;23.322;2023-07-29T09:23:07;3.60;;;1.88;;
47762;SDS011;33526;42.690;23.322;2023-07-29T09:25:35;18.65;;;2.35;;
47762;SDS011;33526;42.690;23.322;2023-07-29T09:28:02;2.75;;;2.20;;
47762;SDS011;33526;42.690;23.322;2023-07-29T09:30:34;3.55;;;2.22;;
47762;SDS011;33526;42.690;23.322;2023-07-29T09:33:00;2.80;;;2.13;;
47762;SDS011;33526;42.690;23.322;2023-07-29T09:35:26;2.80;;;2.30;;
47762;SDS011;33526;42.690;23.322;2023-07-29T09:37:53;3.50;;;2.42;;
47762;SDS011;33526;42.690;23.322;2023-07-29T09:40:18;2.90;;;2.00;;
47762;SDS011;33526;42.690;23.322;2023-07-29T09:42:51;7.63;;;1.80;;
47762;SDS011;33526;42.690;23.322;2023-07-29T09:45:22;1.92;;;1.73;;
47762;SDS011;33526;42.690;23.322;2023-07-29T09:47:49;2.58;;;1.70;;
47762;SDS011;33526;42.690;23.322;2023-07-29T09:50:16;1.52;;;1.35;;
47762;SDS011;33526;42.690;23.322;2023-07-29T09:52:41;1.27;;;1.13;;
47762;SDS011;33526;42.690;23.322;2023-07-29T09:55:09;3.45;;;2.22;;
47762;SDS011;33526;42.690;23.322;2023-07-29T09:57:41;2.83;;;1.50;;
47762;SDS011;33526;42.690;23.322;2023-07-29T10:02:37;2.05;;;1.58;;
47762;SDS011;33526;42.690;23.322;2023-07-29T10:05:04;1.80;;;1.27;;
47762;SDS011;33526;42.690;23.322;2023-07-29T10:07:31;2.90;;;2.20;;
47762;SDS011;33526;42.690;23.322;2023-07-29T10:09:58;5.00;;;2.17;;
47762;SDS011;33526;42.690;23.322;2023-07-29T10:12:24;4.43;;;2.00;;
47762;SDS011;33526;42.690;23.322;2023-07-29T10:14:50;2.60;;;1.73;;
47762;SDS011;33526;42.690;23.322;2023-07-29T10:17:16;6.50;;;2.47;;
47762;SDS011;33526;42.690;23.322;2023-07-29T10:19:41;1.77;;;1.60;;
47762;SDS011;33526;42.690;23.322;2023-07-29T10:22:10;4.00;;;1.60;;
47762;SDS011;33526;42.690;23.322;2023-07-29T10:24:38;1.92;;;1.55;;
47762;SDS011;33526;42.690;23.322;2023-07-29T10:27:07;6.00;;;2.45;;
47762;SDS011;33526;42.690;23.322;2023-07-29T10:29:38;2.72;;;1.48;;
47762;SDS011;33526;42.690;23.322;2023-07-29T10:32:05;1.48;;;1.00;;
47762;SDS011;33526;42.690;23.322;2023-07-29T10:34:33;2.55;;;1.00;;
47762;SDS011;33526;42.690;23.322;2023-07-29T10:37:01;1.77;;;1.10;;
47762;SDS011;33526;42.690;23.322;2023-07-29T10:39:27;2.53;;;1.37;;
47762;SDS011;33526;42.690;23.322;2023-07-29T10:41:56;1.80;;;1.13;;
47762;SDS011;33526;42.690;23.322;2023-07-29T10:47:14;2.63;;;1.38;;
47762;SDS011;33526;42.690;23.322;2023-07-29T10:50:16;1.55;;;0.90;;
47762;SDS011;33526;42.690;23.322;2023-07-29T10:52:43;2.90;;;1.27;;
47762;SDS011;33526;42.690;23.322;2023-07-29T10:55:24;2.20;;;1.10;;
47762;SDS011;33526;42.690;23.322;2023-07-29T10:57:51;1.88;;;1.17;;
47762;SDS011;33526;42.690;23.322;2023-07-29T11:00:30;3.20;;;1.40;;
47762;SDS011;33526;42.690;23.322;2023-07-29T11:03:01;1.10;;;1.00;;
47762;SDS011;33526;42.690;23.322;2023-07-29T11:05:41;4.78;;;1.38;;
47762;SDS011;33526;42.690;23.322;2023-07-29T11:08:21;1.63;;;0.63;;
47762;SDS011;33526;42.690;23.322;2023-07-29T11:11:05;1.65;;;0.75;;
47762;SDS011;33526;42.690;23.322;2023-07-29T11:13:33;1.88;;;0.93;;
47762;SDS011;33526;42.690;23.322;2023-07-29T11:16:00;2.85;;;1.73;;
47762;SDS011;33526;42.690;23.322;2023-07-29T11:18:30;3.58;;;1.25;;
47762;SDS011;33526;42.690;23.322;2023-07-29T11:20:57;2.60;;;1.60;;
47762;SDS011;33526;42.690;23.322;2023-07-29T11:23:36;3.08;;;0.95;;
47762;SDS011;33526;42.690;23.322;2023-07-29T11:26:02;1.48;;;1.10;;
47762;SDS011;33526;42.690;23.322;2023-07-29T11:28:29;2.33;;;1.15;;
47762;SDS011;33526;42.690;23.322;2023-07-29T11:30:54;3.03;;;1.20;;
47762;SDS011;33526;42.690;23.322;2023-07-29T11:33:22;1.17;;;0.88;;
47762;SDS011;33526;42.690;23.322;2023-07-29T11:35:53;1.30;;;1.10;;
47762;SDS011;33526;42.690;23.322;2023-07-29T11:38:20;4.97;;;2.70;;
47762;SDS011;33526;42.690;23.322;2023-07-29T11:40:56;1.23;;;0.93;;
47762;SDS011;33526;42.690;23.322;2023-07-29T11:45:49;3.47;;;1.20;;
47762;SDS011;33526;42.690;23.322;2023-07-29T11:48:16;1.35;;;0.95;;
47762;SDS011;33526;42.690;23.322;2023-07-29T11:50:41;1.43;;;1.20;;
47762;SDS011;33526;42.690;23.322;2023-07-29T11:53:07;2.37;;;1.23;;
47762;SDS011;33526;42.690;23.322;2023-07-29T11:55:33;2.30;;;1.60;;
47762;SDS011;33526;42.690;23.322;2023-07-29T11:57:58;6.25;;;4.32;;
47762;SDS011;33526;42.690;23.322;2023-07-29T12:00:24;2.17;;;1.90;;
47762;SDS011;33526;42.690;23.322;2023-07-29T12:05:16;4.65;;;1.40;;
47762;SDS011;33526;42.690;23.322;2023-07-29T12:07:44;3.22;;;1.23;;
47762;SDS011;33526;42.690;23.322;2023-07-29T12:10:10;1.43;;;1.20;;
47762;SDS011;33526;42.690;23.322;2023-07-29T12:12:46;1.88;;;1.40;;
47762;SDS011;33526;42.690;23.322;2023-07-29T12:15:12;1.85;;;1.40;;
47762;SDS011;33526;42.690;23.322;2023-07-29T12:17:39;3.37;;;1.37;;
47762;SDS011;33526;42.690;23.322;2023-07-29T12:20:08;1.50;;;1.23;;
47762;SDS011;33526;42.690;23.322;2023-07-29T12:22:35;1.20;;;1.10;;
47762;SDS011;33526;42.690;23.322;2023-07-29T12:25:01;1.90;;;1.30;;
47762;SDS011;33526;42.690;23.322;2023-07-29T12:27:30;13.02;;;5.35;;
47762;SDS011;33526;42.690;23.322;2023-07-29T12:29:56;2.40;;;1.70;;
47762;SDS011;33526;42.690;23.322;2023-07-29T12:32:24;7.65;;;2.55;;
47762;SDS011;33526;42.690;23.322;2023-07-29T12:34:53;3.25;;;1.77;;
47762;SDS011;33526;42.690;23.322;2023-07-29T12:37:19;1.73;;;1.52;;
47762;SDS011;33526;42.690;23.322;2023-07-29T12:39:44;3.00;;;1.50;;
47762;SDS011;33526;42.690;23.322;2023-07-29T12:42:10;2.67;;;1.27;;
47762;SDS011;33526;42.690;23.322;2023-07-29T12:44:36;1.83;;;1.37;;
47762;SDS011;33526;42.690;23.322;2023-07-29T12:47:03;2.05;;;1.85;;
47762;SDS011;33526;42.690;23.322;2023-07-29T12:49:30;2.33;;;1.60;;
47762;SDS011;33526;42.690;23.322;2023-07-29T12:51:56;7.87;;;2.40;;
47762;SDS011;33526;42.690;23.322;2023-07-29T12:54:21;4.38;;;1.42;;
47762;SDS011;33526;42.690;23.322;2023-07-29T12:56:47;1.60;;;1.50;;
47762;SDS011;33526;42.690;23.322;2023-07-29T12:59:13;1.73;;;1.60;;
47762;SDS011;33526;42.690;23.322;2023-07-29T13:01:38;1.57;;;1.33;;
47762;SDS011;33526;42.690;23.322;2023-07-29T13:04:04;2.07;;;1.30;;
47762;SDS011;33526;42.690;23.322;2023-07-29T13:06:30;2.03;;;1.40;;
47762;SDS011;33526;42.690;23.322;2023-07-29T13:08:55;2.33;;;1.37;;
47762;SDS011;33526;42.690;23.322;2023-07-29T13:11:21;1.40;;;0.93;;
47762;SDS011;33526;42.690;23.322;2023-07-29T13:13:46;1.27;;;1.10;;
47762;SDS011;33526;42.690;23.322;2023-07-29T13:16:12;1.90;;;1.30;;
47762;SDS011;33526;42.690;23.322;2023-07-29T13:18:38;2.78;;;1.23;;
47762;SDS011;33526;42.690;23.322;2023-07-29T13:21:04;1.77;;;1.33;;
47762;SDS011;33526;42.690;23.322;2023-07-29T13:23:29;2.97;;;1.70;;
47762;SDS011;33526;42.690;23.322;2023-07-29T13:25:55;2.37;;;1.60;;
47762;SDS011;33526;42.690;23.322;2023-07-29T13:28:21;2.50;;;1.67;;
47762;SDS011;33526;42.690;23.322;2023-07-29T13:30:46;1.93;;;1.50;;
47762;SDS011;33526;42.690;23.322;2023-07-29T13:33:12;4.77;;;1.63;;
47762;SDS011;33526;42.690;23.322;2023-07-29T13:35:37;1.50;;;1.30;;
47762;SDS011;33526;42.690;23.322;2023-07-29T13:38:03;2.47;;;1.50;;
47762;SDS011;33526;42.690;23.322;2023-07-29T13:40:29;3.00;;;1.90;;
47762;SDS011;33526;42.690;23.322;2023-07-29T13:43:15;3.53;;;1.60;;
47762;SDS011;33526;42.690;23.322;2023-07-29T13:45:43;2.08;;;1.33;;
47762;SDS011;33526;42.690;23.322;2023-07-29T13:48:08;2.70;;;1.57;;
47762;SDS011;33526;42.690;23.322;2023-07-29T13:50:34;3.27;;;2.10;;
47762;SDS011;33526;42.690;23.322;2023-07-29T13:52:59;2.87;;;2.00;;
47762;SDS011;33526;42.690;23.322;2023-07-29T13:55:28;5.37;;;2.23;;
47762;SDS011;33526;42.690;23.322;2023-07-29T13:57:56;6.18;;;2.08;;
47762;SDS011;33526;42.690;23.322;2023-07-29T14:00:22;2.85;;;2.00;;
47762;SDS011;33526;42.690;23.322;2023-07-29T14:02:47;4.37;;;1.90;;
47762;SDS011;33526;42.690;23.322;2023-07-29T14:05:13;3.97;;;1.80;;
47762;SDS011;33526;42.690;23.322;2023-07-29T14:10:05;5.55;;;1.50;;
47762;SDS011;33526;42.690;23.322;2023-07-29T14:12:31;3.38;;;1.80;;
47762;SDS011;33526;42.690;23.322;2023-07-29T14:14:56;3.70;;;1.60;;
47762;SDS011;33526;42.690;23.322;2023-07-29T14:17:22;2.43;;;1.50;;
47762;SDS011;33526;42.690;23.322;2023-07-29T14:19:47;1.53;;;1.33;;
47762;SDS011;33526;42.690;23.322;2023-07-29T14:22:12;2.13;;;1.93;;
47762;SDS011;33526;42.690;23.322;2023-07-29T14:24:38;3.57;;;2.27;;
47762;SDS011;33526;42.690;23.322;2023-07-29T14:27:03;2.63;;;1.83;;
47762;SDS011;33526;42.690;23.322;2023-07-29T14:29:29;1.65;;;1.55;;
47762;SDS011;33526;42.690;23.322;2023-07-29T14:32:04;3.08;;;1.67;;
47762;SDS011;33526;42.690;23.322;2023-07-29T14:34:30;2.47;;;1.50;;
47762;SDS011;33526;42.690;23.322;2023-07-29T14:36:55;2.47;;;1.70;;
47762;SDS011;33526;42.690;23.322;2023-07-29T14:39:20;1.83;;;1.50;;
47762;SDS011;33526;42.690;23.322;2023-07-29T14:41:46;4.30;;;1.60;;
47762;SDS011;33526;42.690;23.322;2023-07-29T14:44:12;4.87;;;2.10;;
47762;SDS011;33526;42.690;23.322;2023-07-29T14:46:38;2.05;;;1.30;;
47762;SDS011;33526;42.690;23.322;2023-07-29T14:49:34;2.20;;;1.70;;
47762;SDS011;33526;42.690;23.322;2023-07-29T14:51:59;1.43;;;1.33;;
47762;SDS011;33526;42.690;23.322;2023-07-29T14:54:25;1.90;;;1.70;;
47762;SDS011;33526;42.690;23.322;2023-07-29T14:56:50;3.40;;;2.23;;
47762;SDS011;33526;42.690;23.322;2023-07-29T14:59:16;3.37;;;2.50;;
47762;SDS011;33526;42.690;23.322;2023-07-29T15:01:41;4.60;;;2.20;;
47762;SDS011;33526;42.690;23.322;2023-07-29T15:04:07;3.73;;;2.43;;